Time;durP1;ratioP1;P1;durP2;ratioP2;P2;SDS_P1;SDS_P2;PMS_P1;PMS_P2;Temp;Humidity;BMP_temperature;BMP_pressure;BME280_temperature;BME280_humidity;BME280_pressure;Samples;Min_cycle;Max_cycle;Signal;HPM_P1;HPM_P2
2022/09/22 00:03:00;;;;;;;1.70;0.75;;;;;;;20.94;41.56;102376.03;16132408;19;129373;-47
2022/09/22 00:08:22;;;;;;;0.73;0.43;;;;;;;20.92;41.38;102375.44;16130171;19;129673;-45
2022/09/22 00:13:46;;;;;;;0.75;0.40;;;;;;;20.90;41.31;102370.94;16133241;19;130398;-56
2022/09/22 00:19:12;;;;;;;0.50;0.40;;;;;;;20.87;41.61;102368.59;16130519;19;129987;-56
2022/09/22 00:24:33;;;;;;;;;;;;;;;20.84;41.58;102369.03;16134399;19;129597;-44
2022/09/22 00:29:55;;;;;;;0.57;0.50;;;;;;;20.85;41.76;102362.41;16130657;19;129740;-44
2022/09/22 00:35:17;;;;;;;0.57;0.40;;;;;;;20.82;41.49;102360.06;16131998;19;130371;-46
2022/09/22 00:40:38;;;;;;;0.73;0.57;;;;;;;20.81;41.77;102360.31;16132189;19;129489;-44
2022/09/22 00:46:12;;;;;;;1.33;0.30;;;;;;;20.79;41.38;102354.97;16129959;19;129611;-45
2022/09/22 00:51:37;;;;;;;0.75;0.47;;;;;;;20.78;41.79;102356.06;16132154;19;130519;-46
2022/09/22 00:57:16;;;;;;;4.90;0.50;;;;;;;20.78;41.36;102353.28;16128274;19;129639;-44
2022/09/22 01:02:38;;;;;;;1.08;0.60;;;;;;;20.74;41.60;102344.47;16130606;19;129374;-45
2022/09/22 01:08:01;;;;;;;0.73;0.40;;;;;;;20.74;41.79;102338.06;16123947;19;130358;-45
2022/09/22 01:13:31;;;;;;;1.90;0.50;;;;;;;20.73;41.33;102328.03;16124989;19;130200;-44
2022/09/22 01:19:28;;;;;;;0.85;0.47;;;;;;;20.72;41.80;102324.41;16129032;19;129446;-44
2022/09/22 01:24:55;;;;;;;4.53;0.43;;;;;;;20.69;41.82;102324.00;16128757;19;135310;-45
2022/09/22 01:30:17;;;;;;;2.10;0.40;;;;;;;20.68;41.60;102312.03;16128958;19;130443;-45
2022/09/22 01:36:16;;;;;;;1.00;0.60;;;;;;;20.68;41.28;102314.81;16130863;19;129937;-47
2022/09/22 01:41:50;;;;;;;0.40;0.30;;;;;;;20.65;41.74;102326.38;16128175;19;130197;-47
2022/09/22 01:47:23;;;;;;;1.17;0.40;;;;;;;20.64;41.53;102310.78;16125102;19;129169;-46
2022/09/22 01:52:47;;;;;;;1.00;0.50;;;;;;;20.62;41.58;102312.91;16127334;19;129397;-45
2022/09/22 01:58:19;;;;;;;0.50;0.50;;;;;;;20.62;41.49;102304.56;16126635;19;129825;-45
2022/09/22 02:03:43;;;;;;;1.50;0.50;;;;;;;20.59;41.21;102307.84;16126575;19;128915;-47
2022/09/22 02:09:09;;;;;;;1.53;0.50;;;;;;;20.59;41.80;102296.72;16124201;19;129451;-48
2022/09/22 02:14:31;;;;;;;1.73;0.50;;;;;;;20.56;41.15;102298.00;16125820;19;129667;-46
2022/09/22 02:19:53;;;;;;;0.73;0.50;;;;;;;20.55;41.42;102293.53;16127235;19;130573;-47
2022/09/22 02:25:14;;;;;;;0.98;0.50;;;;;;;20.55;41.40;102290.75;16125338;19;134180;-47
2022/09/22 02:30:36;;;;;;;0.60;0.50;;;;;;;20.53;41.66;102281.78;16125025;19;129708;-44
2022/09/22 02:36:11;;;;;;;1.45;0.50;;;;;;;20.53;41.45;102270.66;16126801;19;130226;-49
2022/09/22 02:41:35;;;;;;;0.68;0.40;;;;;;;20.52;41.39;102270.88;16124891;19;129390;-45
2022/09/22 02:47:04;;;;;;;0.82;0.50;;;;;;;20.50;41.31;102257.22;16125546;19;129567;-47
2022/09/22 02:52:26;;;;;;;1.23;0.40;;;;;;;20.48;41.43;102262.16;16126439;19;129480;-46
2022/09/22 02:57:48;;;;;;;1.05;0.40;;;;;;;20.47;41.39;102254.03;16123136;19;130414;-45
2022/09/22 03:03:10;;;;;;;0.57;0.40;;;;;;;20.45;41.68;102257.03;16124053;19;132020;-44
2022/09/22 03:08:32;;;;;;;1.10;0.50;;;;;;;20.45;41.59;102257.91;16123501;19;130006;-45
2022/09/22 03:13:54;;;;;;;0.95;0.40;;;;;;;20.45;41.55;102254.25;16121941;19;129901;-47
2022/09/22 03:19:15;;;;;;;0.68;0.47;;;;;;;20.44;41.45;102255.31;16120622;19;129644;-44
2022/09/22 03:24:37;;;;;;;0.50;0.40;;;;;;;20.42;41.22;102251.94;16120955;19;129507;-46
2022/09/22 03:29:59;;;;;;;0.45;0.30;;;;;;;20.41;41.30;102253.03;16120719;19;129869;-44
2022/09/22 03:35:21;;;;;;;0.60;0.40;;;;;;;20.39;41.20;102247.66;16129708;19;129762;-46
2022/09/22 03:40:49;;;;;;;0.47;0.40;;;;;;;20.39;41.46;102239.31;16136249;19;129516;-48
2022/09/22 03:46:13;;;;;;;0.88;0.60;;;;;;;20.37;41.29;102235.09;16135780;19;129441;-46
2022/09/22 03:51:34;;;;;;;1.80;0.40;;;;;;;20.36;41.24;102239.81;16139283;19;133398;-45
2022/09/22 03:56:59;;;;;;;0.40;0.40;;;;;;;20.35;41.31;102237.22;16134974;19;129794;-46
2022/09/22 04:02:21;;;;;;;0.52;0.40;;;;;;;20.35;41.59;102240.00;16133746;19;129844;-43
2022/09/22 04:07:43;;;;;;;0.30;0.30;;;;;;;20.33;41.27;102231.03;16136674;19;130029;-44
2022/09/22 04:13:05;;;;;;;0.50;0.50;;;;;;;20.31;41.47;102227.66;16135305;19;129358;-44
2022/09/22 04:18:28;;;;;;;2.15;0.50;;;;;;;20.31;41.56;102233.22;16137283;19;129719;-45
2022/09/22 04:23:50;;;;;;;0.82;0.43;;;;;;;20.30;41.13;102221.25;16136508;19;129387;-46
2022/09/22 04:29:11;;;;;;;0.70;0.40;;;;;;;20.27;41.51;102236.44;16136220;19;129001;-46
2022/09/22 04:34:33;;;;;;;1.20;0.40;;;;;;;20.26;41.49;102226.41;16138458;19;129408;-44
2022/09/22 04:39:55;;;;;;;0.80;0.40;;;;;;;20.26;41.54;102228.31;16136103;19;129834;-44
2022/09/22 04:45:17;;;;;;;1.17;0.50;;;;;;;20.24;41.11;102224.94;16135083;19;129946;-47
2022/09/22 04:50:39;;;;;;;0.75;0.40;;;;;;;20.23;41.52;102221.28;16134604;19;130682;-45
2022/09/22 04:56:07;;;;;;;0.60;0.40;;;;;;;20.21;41.34;102228.16;16133456;19;128921;-45
2022/09/22 05:01:29;;;;;;;0.75;0.40;;;;;;;20.22;41.33;102229.88;16134342;19;129522;-44
2022/09/22 05:06:51;;;;;;;2.05;0.40;;;;;;;20.20;41.54;102229.22;16133956;19;130697;-46
2022/09/22 05:12:12;;;;;;;0.40;0.30;;;;;;;20.21;41.49;102228.16;16132029;19;129950;-44
2022/09/22 05:17:35;;;;;;;0.68;0.38;;;;;;;20.21;41.38;102228.16;16133383;19;129307;-44
2022/09/22 05:22:56;;;;;;;1.42;0.50;;;;;;;20.21;41.07;102236.50;16133706;19;129747;-47
2022/09/22 05:28:20;;;;;;;0.50;0.30;;;;;;;20.21;41.12;102240.13;16130898;19;129877;-44
2022/09/22 05:33:41;;;;;;;1.08;0.35;;;;;;;20.20;41.55;102238.41;16128870;19;129553;-45
2022/09/22 05:39:03;;;;;;;1.13;0.50;;;;;;;20.20;40.91;102235.63;16129273;19;129692;-45
2022/09/22 05:44:25;;;;;;;10.75;1.05;;;;;;;20.20;40.53;102237.56;16129679;19;130451;-42
2022/09/22 05:49:47;;;;;;;5.18;1.25;;;;;;;20.32;40.67;102243.25;16125874;19;129301;-46
2022/09/22 05:55:10;;;;;;;19.13;1.60;;;;;;;20.45;40.75;102252.34;16127328;19;130755;-45
2022/09/22 06:00:31;;;;;;;6.28;1.30;;;;;;;20.57;40.51;102251.59;16130577;19;129680;-44
2022/09/22 06:05:53;;;;;;;8.77;1.05;;;;;;;20.67;40.22;102248.31;16129528;19;129669;-44
2022/09/22 06:11:15;;;;;;;7.63;1.30;;;;;;;20.73;40.21;102244.59;16128082;19;129860;-44
2022/09/22 06:16:36;;;;;;;5.38;1.25;;;;;;;20.78;40.32;102243.94;16127715;19;129223;-43
2022/09/22 06:21:58;;;;;;;6.95;1.25;;;;;;;20.82;40.30;102243.25;16124723;19;129463;-42
2022/09/22 06:27:20;;;;;;;6.32;0.90;;;;;;;20.87;40.25;102237.88;16126219;19;129728;-45
2022/09/22 06:32:42;;;;;;;11.90;1.27;;;;;;;20.94;40.56;102243.34;16125050;19;129441;-43
2022/09/22 06:38:06;;;;;;;8.15;1.02;;;;;;;21.01;40.83;102244.13;16124197;19;130660;-41
2022/09/22 06:43:27;;;;;;;5.60;1.00;;;;;;;21.08;40.61;102238.50;16125345;19;129996;-45
2022/09/22 06:48:50;;;;;;;1.02;0.60;;;;;;;21.15;40.61;102244.84;16126442;19;129338;-45
2022/09/22 06:54:12;;;;;;;8.95;0.95;;;;;;;21.20;40.70;102247.78;16125742;19;129422;-44
2022/09/22 06:59:37;;;;;;;6.80;0.70;;;;;;;21.26;41.01;102234.03;16125661;19;129556;-43
2022/09/22 07:04:59;;;;;;;2.42;0.90;;;;;;;21.31;41.15;102242.50;16124711;19;130055;-44
2022/09/22 07:10:21;;;;;;;5.75;0.82;;;;;;;21.36;41.39;102239.88;16135940;19;129517;-48
2022/09/22 07:15:43;;;;;;;1.58;0.80;;;;;;;21.40;41.23;102235.56;16135917;19;129582;-42
2022/09/22 07:21:11;;;;;;;3.90;0.55;;;;;;;21.46;41.54;102231.81;16134270;19;130683;-43
2022/09/22 07:26:35;;;;;;;3.00;0.95;;;;;;;21.47;41.51;102236.31;16138702;19;129709;-45
2022/09/22 07:31:58;;;;;;;6.23;0.80;;;;;;;21.49;41.19;102239.75;16136624;19;129323;-46
2022/09/22 07:37:20;;;;;;;3.28;0.80;;;;;;;21.49;41.17;102245.31;16136789;19;129548;-44
2022/09/22 07:42:46;;;;;;;4.50;0.80;;;;;;;21.48;41.42;102246.38;16136151;19;129584;-48
2022/09/22 07:54:02;;;;;;;3.92;0.68;;;;;;;21.51;41.23;102237.59;16135418;19;129914;-43
2022/09/22 07:59:24;;;;;;;1.73;0.50;;;;;;;21.55;41.54;102231.53;16130397;19;130272;-49
2022/09/22 08:04:46;;;;;;;1.75;0.60;;;;;;;21.59;41.45;102227.19;16133925;19;130029;-44
2022/09/22 08:10:09;;;;;;;3.08;0.85;;;;;;;21.61;41.51;102225.03;16131875;19;129567;-44
2022/09/22 08:15:31;;;;;;;4.03;0.73;;;;;;;21.61;41.67;102222.25;16134552;19;129859;-46
2022/09/22 08:20:53;;;;;;;3.10;0.80;;;;;;;21.61;41.48;102214.72;16129631;19;129832;-43
2022/09/22 08:26:14;;;;;;;3.47;0.70;;;;;;;21.62;41.39;102210.03;16131569;19;130818;-43
2022/09/22 08:31:40;;;;;;;1.95;0.82;;;;;;;21.62;41.60;102213.66;16129577;19;130050;-44
2022/09/22 08:37:02;;;;;;;3.08;0.70;;;;;;;21.62;41.02;102222.00;16131322;19;130734;-41
2022/09/22 08:42:27;;;;;;;2.63;0.77;;;;;;;21.60;41.26;102215.81;16131004;19;130005;-44
2022/09/22 08:53:46;;;;;;;1.48;0.82;;;;;;;21.60;40.77;102224.16;16131075;19;129280;-44
2022/09/22 08:59:21;;;;;;;2.85;0.80;;;;;;;21.58;40.82;102226.34;16129485;19;129711;-43
2022/09/22 09:05:26;;;;;;;11.35;0.95;;;;;;;21.55;40.90;102225.97;16128621;19;129451;-44
2022/09/22 09:10:58;;;;;;;2.28;0.60;;;;;;;21.51;41.00;102226.44;16131176;19;130807;-44
2022/09/22 09:16:55;;;;;;;2.47;0.80;;;;;;;21.48;41.04;102223.22;16128310;19;129189;-50
2022/09/22 09:22:21;;;;;;;5.90;0.80;;;;;;;21.45;41.20;102218.16;16125499;19;129632;-43
2022/09/22 09:27:49;;;;;;;1.63;0.80;;;;;;;21.46;40.63;102223.47;16126725;19;129432;-44
2022/09/22 09:33:22;;;;;;;4.10;0.88;;;;;;;21.48;40.55;102214.88;16123296;19;130290;-45
2022/09/22 09:38:50;;;;;;;1.15;0.80;;;;;;;21.45;40.18;102216.19;16126600;19;129318;-45
2022/09/22 09:44:22;;;;;;;2.15;0.68;;;;;;;21.44;40.39;102205.31;16126432;19;129530;-41
2022/09/22 09:49:45;;;;;;;3.78;1.00;;;;;;;21.39;40.56;102206.03;16120877;19;129241;-41
2022/09/22 09:55:25;;;;;;;4.70;1.17;;;;;;;21.39;40.53;102211.59;16124144;19;129215;-43
2022/09/22 10:00:59;;;;;;;6.65;1.30;;;;;;;21.32;40.50;102208.03;16127128;19;130075;-47
2022/09/22 10:06:25;;;;;;;3.53;1.17;;;;;;;21.23;40.22;102201.94;16125103;19;130061;-45
2022/09/22 10:11:57;;;;;;;4.15;1.00;;;;;;;21.18;39.62;102187.88;16129205;19;129943;-45
2022/09/22 10:17:27;;;;;;;3.67;1.13;;;;;;;21.15;39.70;102194.75;16125221;19;129829;-44
2022/09/22 10:22:49;;;;;;;8.05;1.15;;;;;;;21.14;39.97;102184.72;16126497;19;129353;-43
2022/09/22 10:28:15;;;;;;;2.58;1.00;;;;;;;21.13;39.79;102183.00;16126093;19;129563;-44
2022/09/22 10:33:52;;;;;;;17.70;2.55;;;;;;;21.12;40.42;102178.53;16124593;19;129153;-43
2022/09/22 10:39:17;;;;;;;25.15;3.00;;;;;;;21.16;40.17;102168.63;16123739;19;129825;-44
2022/09/22 10:44:39;;;;;;;16.13;2.40;;;;;;;21.20;40.44;102164.28;16123988;19;128881;-45
2022/09/22 10:50:49;;;;;;;16.25;2.65;;;;;;;21.25;40.11;102165.53;16119537;19;130041;-43
2022/09/22 10:56:32;;;;;;;17.25;2.50;;;;;;;21.22;40.76;102164.91;16125352;19;129796;-44
2022/09/22 11:02:24;;;;;;;18.70;2.60;;;;;;;21.28;40.68;102162.28;16124614;19;129464;-46
2022/09/22 11:13:47;;;;;;;12.68;2.58;;;;;;;21.37;41.16;102147.78;16122688;19;129624;-47
2022/09/22 11:19:31;;;;;;;10.13;1.92;;;;;;;21.43;40.92;102140.41;16120657;19;129215;-46
2022/09/22 11:25:12;;;;;;;7.70;1.75;;;;;;;21.46;41.01;102139.94;16113426;19;129382;-43
2022/09/22 11:30:46;;;;;;;11.45;1.88;;;;;;;21.48;40.86;102129.44;16109385;19;129447;-47
2022/09/22 11:36:16;;;;;;;11.65;1.88;;;;;;;21.47;40.86;102113.81;16103783;19;129398;-48
2022/09/22 11:42:16;;;;;;;7.50;1.95;;;;;;;21.48;40.79;102115.50;16114514;19;129698;-43
2022/09/22 11:47:53;;;;;;;10.07;1.55;;;;;;;21.47;40.56;102112.97;16120577;19;129048;-43
2022/09/22 11:53:23;;;;;;;10.05;2.10;;;;;;;21.46;40.57;102106.53;16123873;19;134929;-46
2022/09/22 11:58:46;;;;;;;6.88;1.30;;;;;;;21.44;41.15;102097.56;16135914;19;129917;-46
2022/09/22 12:04:25;;;;;;;7.75;1.38;;;;;;;21.45;40.96;102104.84;16133910;19;130151;-43
2022/09/22 12:09:55;;;;;;;9.85;1.10;;;;;;;21.46;40.93;102095.41;16133148;19;129972;-43
2022/09/22 12:15:28;;;;;;;14.32;1.13;;;;;;;21.45;40.83;102079.78;16131346;19;130039;-46
2022/09/22 12:21:04;;;;;;;6.82;1.10;;;;;;;21.37;39.77;102063.44;16137521;19;133352;-44
2022/09/22 12:26:43;;;;;;;8.63;1.08;;;;;;;21.32;39.66;102063.28;16136240;19;129256;-43
2022/09/22 12:32:22;;;;;;;7.00;0.82;;;;;;;21.30;38.56;102051.53;16134585;19;129838;-44
2022/09/22 12:37:44;;;;;;;3.90;0.70;;;;;;;21.28;38.02;102049.00;16134142;19;129884;-44
2022/09/22 12:43:16;;;;;;;3.38;0.90;;;;;;;21.30;36.83;102035.69;16133299;19;129300;-44
2022/09/22 12:48:38;;;;;;;3.78;0.73;;;;;;;21.33;36.69;102043.56;16130235;19;129554;-45
2022/09/22 12:54:21;;;;;;;4.22;0.90;;;;;;;21.36;36.15;102028.31;16127645;19;129435;-44
2022/09/22 12:59:56;;;;;;;4.85;0.85;;;;;;;21.42;36.44;102030.13;16122386;19;130417;-45
2022/09/22 13:05:23;;;;;;;1.88;0.50;;;;;;;21.48;36.30;102036.69;16123940;19;130238;-43
2022/09/22 13:10:56;;;;;;;8.15;0.88;;;;;;;21.53;35.86;102031.28;16122602;19;129758;-43
2022/09/22 13:16:18;;;;;;;5.18;0.70;;;;;;;21.59;35.74;102021.13;16126663;19;129462;-44
2022/09/22 13:21:40;;;;;;;2.08;0.57;;;;;;;21.61;35.55;102017.00;16127192;19;130607;-43
2022/09/22 13:27:03;;;;;;;1.35;0.32;;;;;;;21.63;35.49;102005.66;16127123;19;129539;-45
2022/09/22 13:32:27;;;;;;;5.18;0.50;;;;;;;21.64;35.48;101999.84;16125964;19;129932;-43
2022/09/22 13:37:49;;;;;;;1.60;0.50;;;;;;;21.60;34.75;102001.38;16129648;19;128897;-45
2022/09/22 13:43:11;;;;;;;3.63;0.60;;;;;;;21.59;34.48;101998.84;16130496;19;129894;-43
2022/09/22 13:48:36;;;;;;;1.50;0.50;;;;;;;21.57;34.21;101984.31;16126048;19;129137;-46
2022/09/22 13:53:58;;;;;;;4.40;0.52;;;;;;;21.57;33.92;101973.19;16125319;19;129474;-43
2022/09/22 13:59:20;;;;;;;2.15;0.60;;;;;;;21.57;33.58;101967.63;16125158;19;130197;-43
2022/09/22 14:04:51;;;;;;;2.38;0.50;;;;;;;21.59;33.47;101959.88;16126536;19;129991;-45
2022/09/22 14:10:18;;;;;;;1.52;0.50;;;;;;;21.60;33.70;101961.56;16126456;19;129735;-45
2022/09/22 14:15:42;;;;;;;1.83;0.50;;;;;;;21.59;33.71;101959.88;16125974;19;130209;-45
2022/09/22 14:21:08;;;;;;;4.07;0.40;;;;;;;21.60;33.56;101967.13;16126656;19;130660;-43
2022/09/22 14:26:37;;;;;;;5.20;0.40;;;;;;;21.62;33.69;101948.25;16126737;19;131808;-44
2022/09/22 14:32:21;;;;;;;5.40;0.98;;;;;;;21.63;33.40;101936.88;16126209;19;129974;-44
2022/09/22 14:37:47;;;;;;;6.85;0.63;;;;;;;21.63;33.31;101944.38;16124955;19;129053;-44
2022/09/22 14:43:41;;;;;;;1.15;0.43;;;;;;;21.63;33.02;101936.88;16124725;19;129868;-44
2022/09/22 14:49:42;;;;;;;5.95;0.70;;;;;;;21.64;32.90;101927.44;16121977;19;129085;-45
2022/09/22 14:55:13;;;;;;;4.18;0.75;;;;;;;21.63;33.61;101919.31;16123595;19;129570;-46
2022/09/22 15:06:15;;;;;;;9.98;1.73;;;;;;;21.58;33.47;101919.19;16121338;19;130117;-46
2022/09/22 15:11:53;;;;;;;9.38;2.13;;;;;;;21.59;33.62;101909.75;16122977;19;129729;-46
2022/09/22 15:23:20;;;;;;;6.45;1.55;;;;;;;21.50;34.52;101903.69;16121619;19;129617;-46
2022/09/22 15:28:42;;;;;;;4.47;1.20;;;;;;;21.45;34.22;101912.75;16126045;19;129427;-44
2022/09/22 15:34:05;;;;;;;7.00;1.83;;;;;;;21.41;34.79;101908.78;16134898;19;131196;-46
2022/09/22 15:39:27;;;;;;;8.40;1.55;;;;;;;21.36;34.74;101906.69;16131763;19;130318;-43
2022/09/22 15:44:51;;;;;;;4.07;1.08;;;;;;;21.36;34.89;101905.84;16133307;19;128904;-44
2022/09/22 15:50:19;;;;;;;5.03;1.08;;;;;;;21.37;34.61;101904.75;16134169;19;129679;-44
2022/09/22 15:55:41;;;;;;;4.05;1.15;;;;;;;21.35;34.93;101902.19;16134644;19;129744;-46
2022/09/22 16:01:04;;;;;;;3.22;1.10;;;;;;;21.38;35.04;101900.91;16134512;19;129506;-44
2022/09/22 16:06:26;;;;;;;4.15;1.20;;;;;;;21.38;35.21;101900.91;16133859;19;129219;-45
2022/09/22 16:11:48;;;;;;;5.55;1.02;;;;;;;21.37;34.82;101899.19;16132357;19;128997;-45
2022/09/22 16:17:10;;;;;;;5.50;1.02;;;;;;;21.37;35.25;101900.03;16132142;19;129723;-44
2022/09/22 16:22:32;;;;;;;4.88;0.98;;;;;;;21.38;35.14;101892.53;16131310;19;129836;-46
2022/09/22 16:27:54;;;;;;;3.65;0.80;;;;;;;21.38;34.90;101878.63;16131058;19;130446;-45
2022/09/22 16:33:16;;;;;;;2.72;0.77;;;;;;;21.40;35.02;101876.47;16132408;19;130382;-44
2022/09/22 16:38:38;;;;;;;2.22;0.60;;;;;;;21.43;35.13;101870.38;16130973;19;128992;-45
2022/09/22 16:44:01;;;;;;;3.15;0.63;;;;;;;21.50;35.72;101871.16;16132310;19;129419;-46
2022/09/22 16:49:24;;;;;;;7.13;0.60;;;;;;;21.60;35.59;101866.91;16129674;19;130011;-45
2022/09/22 16:54:46;;;;;;;5.97;0.60;;;;;;;21.67;35.58;101862.91;16130899;19;129365;-44
2022/09/22 17:00:10;;;;;;;15.82;1.83;;;;;;;21.72;35.56;101861.31;16130729;19;129987;-46
2022/09/22 17:05:32;;;;;;;9.90;1.00;;;;;;;21.77;35.77;101862.28;16129514;19;129410;-46
2022/09/22 17:10:54;;;;;;;12.52;1.20;;;;;;;21.85;36.29;101860.19;16130534;19;129386;-46
2022/09/22 17:16:33;;;;;;;8.95;1.20;;;;;;;21.94;36.37;101861.50;16131741;19;129513;-47
2022/09/22 17:21:55;;;;;;;6.85;0.90;;;;;;;21.98;36.29;101857.97;16132557;19;130717;-45
2022/09/22 17:27:17;;;;;;;8.20;0.80;;;;;;;22.03;36.29;101854.44;16130370;19;130356;-46
2022/09/22 17:32:39;;;;;;;5.43;1.05;;;;;;;22.05;36.37;101849.47;16126780;19;130327;-47
2022/09/22 17:38:01;;;;;;;6.93;1.17;;;;;;;22.05;36.42;101857.84;16128589;19;129592;-45
2022/09/22 17:43:23;;;;;;;11.55;0.75;;;;;;;22.02;36.88;101852.78;16049518;19;129307;-46
2022/09/22 18:00:19;;;;;;;11.10;1.20;;;;;;;21.85;37.46;101857.41;16124994;19;129410;-50
2022/09/22 18:05:42;;;;;;;14.70;0.82;;;;;;;21.81;37.57;101855.09;16125558;19;129534;-46
2022/09/22 18:11:04;;;;;;;10.38;1.13;;;;;;;21.78;37.70;101844.47;16124745;19;129338;-45
2022/09/22 18:16:31;;;;;;;7.20;1.50;;;;;;;21.75;37.80;101847.75;16123319;19;130352;-46
2022/09/22 18:21:54;;;;;;;9.98;1.02;;;;;;;21.72;37.96;101839.88;16123130;19;129447;-44
2022/09/22 18:27:18;;;;;;;14.23;0.90;;;;;;;21.69;38.14;101840.38;16122951;19;129488;-46
2022/09/22 18:32:40;;;;;;;7.82;0.70;;;;;;;21.67;37.90;101834.19;16125110;19;130092;-46
2022/09/22 18:38:02;;;;;;;14.05;0.75;;;;;;;21.65;38.29;101836.41;16119497;19;129840;-51
2022/09/22 18:43:23;;;;;;;6.60;0.70;;;;;;;21.64;37.98;101845.84;16120893;19;129487;-45
2022/09/22 18:48:47;;;;;;;7.72;1.02;;;;;;;21.62;38.40;101848.84;16120339;19;129532;-44
2022/09/22 18:54:10;;;;;;;6.50;0.90;;;;;;;21.59;38.15;101854.06;16119628;19;130938;-47
2022/09/22 18:59:35;;;;;;;7.00;0.80;;;;;;;21.58;38.70;101853.22;16117536;19;129791;-45
2022/09/22 19:04:57;;;;;;;5.80;1.00;;;;;;;21.56;38.84;101860.13;16128880;19;129471;-50
2022/09/22 19:10:20;;;;;;;17.65;1.65;;;;;;;21.55;38.89;101853.72;16136131;19;131179;-45
2022/09/22 19:15:42;;;;;;;12.23;0.88;;;;;;;21.52;39.04;101851.41;16136287;19;129301;-47
2022/09/22 19:21:04;;;;;;;5.82;0.90;;;;;;;21.51;39.23;101847.78;16136732;19;129697;-45
2022/09/22 19:26:27;;;;;;;10.23;1.42;;;;;;;21.52;39.23;101855.06;16138906;19;129526;-47
2022/09/22 19:31:49;;;;;;;14.63;0.80;;;;;;;21.52;39.07;101857.84;16133697;19;131055;-46
2022/09/22 19:37:11;;;;;;;8.68;0.80;;;;;;;21.54;39.17;101863.16;16129483;19;130601;-46
2022/09/22 19:42:35;;;;;;;4.43;0.70;;;;;;;21.55;39.43;101847.28;16130979;19;129890;-46
2022/09/22 19:48:01;;;;;;;6.53;0.60;;;;;;;21.56;39.41;101851.75;16130560;19;129886;-44
2022/09/22 19:53:23;;;;;;;9.23;0.80;;;;;;;21.55;39.68;101848.16;16127483;19;130101;-44
2022/09/22 19:58:44;;;;;;;9.63;1.00;;;;;;;21.56;39.89;101846.19;16129082;19;130744;-44
2022/09/22 20:04:13;;;;;;;5.53;0.73;;;;;;;21.56;40.31;101843.41;16127666;19;129315;-43
2022/09/22 20:09:35;;;;;;;6.53;0.60;;;;;;;21.55;39.63;101842.56;16129357;19;129081;-43
2022/09/22 20:14:56;;;;;;;5.65;0.80;;;;;;;21.54;40.23;101837.25;16126757;19;130710;-45
2022/09/22 20:20:24;;;;;;;5.43;0.82;;;;;;;21.55;40.09;101825.00;16125714;19;130825;-43
2022/09/22 20:25:46;;;;;;;7.47;0.85;;;;;;;21.54;40.10;101829.75;16128244;19;129507;-43
2022/09/22 20:31:10;;;;;;;3.75;0.55;;;;;;;21.54;40.13;101817.78;16126565;19;130824;-44
2022/09/22 20:36:33;;;;;;;3.30;0.47;;;;;;;21.52;40.45;101823.56;16126567;19;129479;-44
2022/09/22 20:41:58;;;;;;;;;;;;;;;21.51;39.97;101825.53;16131013;19;129941;-46
2022/09/22 20:47:24;;;;;;;15.02;0.95;;;;;;;21.51;40.39;101814.38;16131745;19;129438;-45
2022/09/22 20:52:46;;;;;;;7.07;0.85;;;;;;;21.48;40.21;101809.25;16130705;19;130449;-46
2022/09/22 20:58:11;;;;;;;8.20;0.90;;;;;;;21.43;39.97;101811.91;16131311;19;129517;-44
2022/09/22 21:03:34;;;;;;;8.43;1.13;;;;;;;21.39;40.00;101813.53;16131925;19;129966;-45
2022/09/22 21:14:35;;;;;;;6.03;0.80;;;;;;;21.31;40.22;101799.94;16131481;19;129855;-47
2022/09/22 21:19:57;;;;;;;2.92;0.65;;;;;;;21.28;39.96;101801.28;16130459;19;130174;-46
2022/09/22 21:25:19;;;;;;;3.38;0.95;;;;;;;21.24;40.48;101785.34;16126406;19;130278;-46
2022/09/22 21:30:41;;;;;;;6.15;0.70;;;;;;;21.21;40.22;101786.69;16127765;19;129602;-46
2022/09/22 21:36:07;;;;;;;6.78;0.88;;;;;;;21.19;40.17;101781.34;16128387;19;129240;-46
2022/09/22 21:41:32;;;;;;;6.85;0.63;;;;;;;21.17;40.23;101780.72;16129617;19;129741;-45
2022/09/22 21:46:54;;;;;;;;;;;;;;;21.12;40.21;101775.06;16132745;19;129838;-46
2022/09/22 21:52:16;;;;;;;2.22;0.50;;;;;;;21.13;40.42;101773.09;16127973;19;129393;-46
2022/09/22 21:57:37;;;;;;;1.85;0.55;;;;;;;21.08;40.33;101765.50;16128812;19;129618;-45
2022/09/22 22:08:59;;;;;;;0.82;0.60;;;;;;;21.05;40.31;101763.19;16116542;19;129247;-46
2022/09/22 22:14:23;;;;;;;3.47;0.75;;;;;;;20.99;40.63;101764.19;16118025;19;129680;-45
2022/09/22 22:19:46;;;;;;;2.00;0.50;;;;;;;20.98;40.11;101759.69;16116766;19;130590;-48
2022/09/22 22:25:17;;;;;;;1.55;0.60;;;;;;;20.96;40.45;101753.53;16116540;19;130292;-45
2022/09/22 22:30:39;;;;;;;1.85;0.50;;;;;;;20.96;40.49;101756.31;16117179;19;130026;-47
2022/09/22 22:36:03;;;;;;;1.10;0.50;;;;;;;20.96;40.59;101756.31;16114412;19;129743;-46
2022/09/22 22:41:25;;;;;;;1.42;0.60;;;;;;;20.95;40.43;101749.91;16114345;19;130487;-58
2022/09/22 22:46:46;;;;;;;0.70;0.40;;;;;;;20.96;40.31;101745.19;16129321;19;129839;-51
2022/09/22 22:52:08;;;;;;;1.23;0.70;;;;;;;20.92;40.46;101738.44;16123022;19;129420;-45
2022/09/22 22:57:30;;;;;;;1.42;0.50;;;;;;;20.90;40.13;101731.16;16128057;19;131184;-48
2022/09/22 23:02:51;;;;;;;2.13;0.57;;;;;;;20.88;40.09;101727.78;16124974;19;129919;-45
2022/09/22 23:08:13;;;;;;;2.30;0.65;;;;;;;20.93;40.45;101727.03;16120828;19;129324;-45
2022/09/22 23:13:35;;;;;;;1.13;0.57;;;;;;;20.97;40.09;101727.41;16122642;19;133588;-47
2022/09/22 23:19:00;;;;;;;1.10;0.70;;;;;;;20.97;40.02;101724.63;16122587;19;129823;-45
2022/09/22 23:24:21;;;;;;;2.50;0.50;;;;;;;20.97;40.37;101725.47;16121805;19;130422;-46
2022/09/22 23:29:43;;;;;;;1.02;0.70;;;;;;;20.97;40.07;101719.91;16121867;19;129480;-48
2022/09/22 23:35:05;;;;;;;6.15;1.05;;;;;;;20.97;39.96;101713.50;16122460;19;129273;-47
2022/09/22 23:40:29;;;;;;;2.25;0.52;;;;;;;20.96;40.17;101703.44;16121850;19;129412;-45
2022/09/22 23:45:51;;;;;;;2.13;0.60;;;;;;;20.92;40.38;101703.09;16123366;19;129407;-46
2022/09/22 23:51:13;;;;;;;1.33;0.70;;;;;;;20.90;40.19;101697.78;16128364;19;129664;-47
2022/09/22 23:56:35;;;;;;;1.55;0.50;;;;;;;20.94;40.42;101688.94;16138940;19;132754;-48
